Time,TemperatureF,DewpointF,PressureIn,WindDirection,WindDirectionDegrees,WindSpeedMPH,WindSpeedGustMPH,Humidity,HourlyPrecipIn,Conditions,Clouds,dailyrainin,SoftwareType,DateUTC
2013-02-15 00:01:00,19.0,15.0,-100.00,SSW,200,9.0,14.0,84,-99.99,,,-99.99,,2013-02-15 07:01:00,
2013-02-15 00:11:00,19.0,15.0,-100.00,SSW,195,12.0,12.0,84,-99.99,,,-99.99,,2013-02-15 07:11:00,
2013-02-15 00:21:00,19.0,15.0,-100.00,SSW,205,9.0,12.0,83,-99.99,,,-99.99,,2013-02-15 07:21:00,
2013-02-15 00:31:00,19.0,15.0,-100.00,SSW,205,12.0,13.0,83,-99.99,,,-99.99,,2013-02-15 07:31:00,
2013-02-15 00:41:00,20.0,15.0,-100.00,SSW,210,11.0,13.0,81,-99.99,,,-99.99,,2013-02-15 07:41:00,
2013-02-15 00:52:00,20.0,15.0,-100.00,South,175,6.0,10.0,79,-99.99,,,-99.99,,2013-02-15 07:52:00,
2013-02-15 01:01:00,20.0,15.0,-100.00,SW,225,6.0,11.0,79,-99.99,,,-99.99,,2013-02-15 08:01:00,
2013-02-15 01:11:00,20.0,16.0,-100.00,SW,230,7.0,9.0,83,-99.99,,,-99.99,,2013-02-15 08:11:00,
2013-02-15 01:21:00,21.0,17.0,-100.00,SW,225,2.0,10.0,85,-99.99,,,-99.99,,2013-02-15 08:21:00,
2013-02-15 01:31:00,20.0,17.0,-100.00,South,175,0.0,7.0,87,-99.99,,,-99.99,,2013-02-15 08:31:00,
2013-02-15 01:41:00,20.0,18.0,-100.00,West,280,4.0,6.0,91,-99.99,,,-99.99,,2013-02-15 08:41:00,
2013-02-15 01:52:00,20.0,19.0,-100.00,WSW,245,4.0,4.0,94,-99.99,,,-99.99,,2013-02-15 08:52:00,
2013-02-15 02:01:00,20.0,19.0,-100.00,West,265,1.0,4.0,95,-99.99,,,-99.99,,2013-02-15 09:01:00,
2013-02-15 02:11:00,20.0,19.0,-100.00,West,270,4.0,5.0,97,-99.99,,,-99.99,,2013-02-15 09:11:00,
2013-02-15 02:21:00,20.0,19.0,-100.00,NW,315,2.0,4.0,99,-99.99,,,-99.99,,2013-02-15 09:21:00,
2013-02-15 02:31:00,20.0,20.0,-100.00,WNW,290,2.0,4.0,99,-99.99,,,-99.99,,2013-02-15 09:31:00,
2013-02-15 02:41:00,20.0,20.0,-100.00,NW,320,2.0,3.0,99,-99.99,,,-99.99,,2013-02-15 09:41:00,
2013-02-15 02:51:00,20.0,20.0,-100.00,NW,325,1.0,2.0,99,-99.99,,,-99.99,,2013-02-15 09:51:00,
2013-02-15 03:01:00,20.0,20.0,-100.00,NW,315,2.0,3.0,99,-99.99,,,-99.99,,2013-02-15 10:01:00,
2013-02-15 03:11:00,20.0,20.0,-100.00,NNW,345,1.0,3.0,99,-99.99,,,-99.99,,2013-02-15 10:11:00,
2013-02-15 03:21:00,20.0,20.0,-100.00,SSW,205,4.0,4.0,99,-99.99,,,-99.99,,2013-02-15 10:21:00,
2013-02-15 03:31:00,20.0,20.0,-100.00,South,190,3.0,5.0,99,-99.99,,,-99.99,,2013-02-15 10:31:00,
2013-02-15 03:41:00,20.0,20.0,-100.00,SSW,205,6.0,7.0,99,-99.99,,,-99.99,,2013-02-15 10:41:00,
2013-02-15 03:51:00,20.0,20.0,-100.00,SW,225,7.0,9.0,99,-99.99,,,-99.99,,2013-02-15 10:51:00,
2013-02-15 04:01:00,21.0,21.0,-100.00,SW,225,6.0,8.0,99,-99.99,,,-99.99,,2013-02-15 11:01:00,
2013-02-15 04:11:00,21.0,21.0,-100.00,West,265,4.0,8.0,99,-99.99,,,-99.99,,2013-02-15 11:11:00,
2013-02-15 04:22:00,21.0,21.0,-100.00,West,265,4.0,6.0,99,-99.99,,,-99.99,,2013-02-15 11:22:00,
2013-02-15 04:31:00,21.0,21.0,-100.00,WSW,255,4.0,6.0,99,-99.99,,,-99.99,,2013-02-15 11:31:00,
2013-02-15 04:42:00,21.0,21.0,-100.00,West,275,4.0,6.0,99,-99.99,,,-99.99,,2013-02-15 11:42:00,
2013-02-15 04:52:00,22.0,21.0,-100.00,WSW,245,4.0,6.0,98,-99.99,,,-99.99,,2013-02-15 11:52:00,
2013-02-15 05:01:00,22.0,21.0,-100.00,North,5,1.0,7.0,95,-99.99,,,-99.99,,2013-02-15 12:01:00,
2013-02-15 05:11:00,22.0,21.0,-100.00,West,260,4.0,9.0,95,-99.99,,,-99.99,,2013-02-15 12:11:00,
2013-02-15 05:21:00,22.0,21.0,-100.00,WNW,295,4.0,4.0,95,-99.99,,,-99.99,,2013-02-15 12:21:00,
2013-02-15 05:31:00,23.0,22.0,-100.00,WNW,285,5.0,7.0,94,-99.99,,,-99.99,,2013-02-15 12:31:00,
2013-02-15 05:42:00,24.0,22.0,-100.00,NW,325,6.0,9.0,91,-99.99,,,-99.99,,2013-02-15 12:42:00,
2013-02-15 05:52:00,24.0,22.0,-100.00,NW,315,6.0,9.0,91,-99.99,,,-99.99,,2013-02-15 12:52:00,
2013-02-15 06:02:00,24.0,21.0,-100.00,WNW,295,7.0,11.0,87,-99.99,,,-99.99,,2013-02-15 13:02:00,
2013-02-15 06:11:00,25.0,20.0,-100.00,NW,310,13.0,16.0,81,-99.99,,,-99.99,,2013-02-15 13:11:00,
2013-02-15 06:21:00,25.0,19.0,-100.00,NW,310,13.0,19.0,77,-99.99,,,-99.99,,2013-02-15 13:21:00,
2013-02-15 06:31:00,25.0,19.0,-100.00,NW,310,13.0,17.0,76,-99.99,,,-99.99,,2013-02-15 13:31:00,
2013-02-15 06:41:00,25.0,18.0,-100.00,NW,325,14.0,17.0,73,-99.99,,,-99.99,,2013-02-15 13:41:00,
2013-02-15 06:51:00,25.0,18.0,-100.00,NW,315,8.0,14.0,73,-99.99,,,-99.99,,2013-02-15 13:51:00,
2013-02-15 07:01:00,25.0,18.0,-100.00,NW,315,7.0,10.0,73,-99.99,,,-99.99,,2013-02-15 14:01:00,
2013-02-15 07:11:00,25.0,18.0,-100.00,NW,315,8.0,10.0,72,-99.99,,,-99.99,,2013-02-15 14:11:00,
2013-02-15 07:21:00,25.0,16.0,-100.00,NW,305,8.0,14.0,68,-99.99,,,-99.99,,2013-02-15 14:21:00,
2013-02-15 07:32:00,26.0,16.0,-100.00,NNW,335,9.0,11.0,65,-99.99,,,-99.99,,2013-02-15 14:32:00,
2013-02-15 07:41:00,26.0,16.0,-100.00,NW,320,9.0,11.0,64,-99.99,,,-99.99,,2013-02-15 14:41:00,
2013-02-15 07:52:00,25.0,16.0,-100.00,WNW,290,9.0,11.0,65,-99.99,,,-99.99,,2013-02-15 14:52:00,
2013-02-15 08:01:00,22.0,15.0,-100.00,NE,50,9.0,17.0,75,-99.99,,,-99.99,,2013-02-15 15:01:00,
2013-02-15 08:11:00,21.0,16.0,-100.00,ENE,60,3.0,10.0,80,-99.99,,,-99.99,,2013-02-15 15:11:00,
2013-02-15 08:21:00,22.0,17.0,-100.00,ENE,60,4.0,6.0,80,-99.99,,,-99.99,,2013-02-15 15:21:00,
2013-02-15 08:32:00,22.0,17.0,-100.00,East,100,1.0,4.0,79,-99.99,,,-99.99,,2013-02-15 15:32:00,
2013-02-15 08:41:00,24.0,17.0,-100.00,SE,125,1.0,2.0,73,-99.99,,,-99.99,,2013-02-15 15:41:00,
2013-02-15 08:51:00,21.0,15.0,-100.00,South,180,5.0,6.0,75,-99.99,,,-99.99,,2013-02-15 15:51:00,
2013-02-15 09:01:00,21.0,15.0,-100.00,South,190,4.0,6.0,77,-99.99,,,-99.99,,2013-02-15 16:01:00,
2013-02-15 09:11:00,23.0,17.0,-100.00,SSW,205,3.0,6.0,76,-99.99,,,-99.99,,2013-02-15 16:11:00,
2013-02-15 09:21:00,26.0,17.0,-100.00,South,185,2.0,3.0,70,-99.99,,,-99.99,,2013-02-15 16:21:00,
2013-02-15 09:31:00,24.0,16.0,-100.00,SSW,200,4.0,5.0,70,-99.99,,,-99.99,,2013-02-15 16:31:00,
2013-02-15 09:42:00,24.0,16.0,-100.00,SSW,195,6.0,6.0,71,-99.99,,,-99.99,,2013-02-15 16:42:00,
2013-02-15 09:51:00,23.0,16.0,-100.00,SSW,205,6.0,7.0,74,-99.99,,,-99.99,,2013-02-15 16:51:00,
2013-02-15 10:01:00,25.0,17.0,-100.00,SSW,210,4.0,6.0,71,-99.99,,,-99.99,,2013-02-15 17:01:00,
2013-02-15 10:11:00,27.0,18.0,-100.00,SSW,195,3.0,4.0,66,-99.99,,,-99.99,,2013-02-15 17:11:00,
2013-02-15 10:21:00,27.0,17.0,-100.00,South,190,4.0,4.0,65,-99.99,,,-99.99,,2013-02-15 17:21:00,
2013-02-15 10:31:00,26.0,16.0,-100.00,SSW,195,6.0,7.0,67,-99.99,,,-99.99,,2013-02-15 17:31:00,
2013-02-15 10:52:00,26.0,17.0,-100.00,South,185,6.0,11.0,68,-99.99,,,-99.99,,2013-02-15 17:52:00,
2013-02-15 11:01:00,27.0,17.0,-100.00,SSW,210,7.0,9.0,66,-99.99,,,-99.99,,2013-02-15 18:01:00,
2013-02-15 11:11:00,26.0,17.0,-100.00,SSW,210,9.0,10.0,66,-99.99,,,-99.99,,2013-02-15 18:11:00,
2013-02-15 11:21:00,27.0,17.0,-100.00,SSW,205,9.0,10.0,64,-99.99,,,-99.99,,2013-02-15 18:21:00,
2013-02-15 11:31:00,27.0,17.0,-100.00,SSW,205,9.0,11.0,64,-99.99,,,-99.99,,2013-02-15 18:31:00,
2013-02-15 11:41:00,27.0,17.0,-100.00,SSW,210,10.0,11.0,64,-99.99,,,-99.99,,2013-02-15 18:41:00,
2013-02-15 11:52:00,28.0,16.0,-100.00,SSW,210,11.0,12.0,60,-99.99,,,-99.99,,2013-02-15 18:52:00,
2013-02-15 12:01:00,29.0,16.0,-100.00,SSW,210,10.0,12.0,58,-99.99,,,-99.99,,2013-02-15 19:01:00,
2013-02-15 12:11:00,29.0,16.0,-100.00,South,190,9.0,12.0,58,-99.99,,,-99.99,,2013-02-15 19:11:00,
2013-02-15 12:21:00,30.0,15.0,-100.00,SSW,195,8.0,11.0,54,-99.99,,,-99.99,,2013-02-15 19:21:00,
2013-02-15 12:31:00,30.0,16.0,-100.00,South,185,8.0,11.0,55,-99.99,,,-99.99,,2013-02-15 19:31:00,
2013-02-15 12:41:00,31.0,16.0,-100.00,South,180,9.0,11.0,52,-99.99,,,-99.99,,2013-02-15 19:41:00,
2013-02-15 12:51:00,31.0,14.0,-100.00,South,185,9.0,11.0,49,-99.99,,,-99.99,,2013-02-15 19:51:00,
2013-02-15 13:01:00,31.0,14.0,-100.00,SSW,195,11.0,12.0,50,-99.99,,,-99.99,,2013-02-15 20:01:00,
2013-02-15 13:11:00,31.0,14.0,-100.00,South,185,11.0,12.0,49,-99.99,,,-99.99,,2013-02-15 20:11:00,
2013-02-15 13:21:00,32.0,15.0,-100.00,South,185,10.0,11.0,49,-99.99,,,-99.99,,2013-02-15 20:21:00,
2013-02-15 13:32:00,31.0,15.0,-100.00,South,180,9.0,11.0,49,-99.99,,,-99.99,,2013-02-15 20:32:00,
2013-02-15 13:42:00,32.0,15.0,-100.00,South,180,9.0,11.0,47,-99.99,,,-99.99,,2013-02-15 20:42:00,
2013-02-15 13:52:00,33.0,15.0,-100.00,SSE,160,7.0,11.0,46,-99.99,,,-99.99,,2013-02-15 20:52:00,
2013-02-15 14:01:00,33.0,14.0,-100.00,SE,145,7.0,10.0,44,-99.99,,,-99.99,,2013-02-15 21:01:00,
2013-02-15 14:11:00,32.0,13.0,-100.00,SSE,155,8.0,9.0,44,-99.99,,,-99.99,,2013-02-15 21:11:00,
2013-02-15 14:21:00,31.0,14.0,-100.00,SSE,150,11.0,12.0,48,-99.99,,,-99.99,,2013-02-15 21:21:00,
2013-02-15 14:31:00,31.0,17.0,-100.00,SE,140,12.0,13.0,54,-99.99,,,-99.99,,2013-02-15 21:31:00,
2013-02-15 14:42:00,31.0,17.0,-100.00,SE,140,11.0,12.0,56,-99.99,,,-99.99,,2013-02-15 21:42:00,
2013-02-15 14:51:00,31.0,18.0,-100.00,SE,140,11.0,13.0,58,-99.99,,,-99.99,,2013-02-15 21:51:00,
2013-02-15 15:01:00,31.0,18.0,-100.00,SE,140,11.0,13.0,60,-99.99,,,-99.99,,2013-02-15 22:01:00,
2013-02-15 15:11:00,31.0,19.0,-100.00,SSE,150,9.0,11.0,60,-99.99,,,-99.99,,2013-02-15 22:11:00,
2013-02-15 15:21:00,31.0,19.0,-100.00,SE,145,11.0,12.0,61,-99.99,,,-99.99,,2013-02-15 22:21:00,
2013-02-15 15:31:00,32.0,20.0,-100.00,SE,130,10.0,12.0,60,-99.99,,,-99.99,,2013-02-15 22:31:00,
2013-02-15 15:41:00,31.0,21.0,-100.00,SE,135,9.0,12.0,65,-99.99,,,-99.99,,2013-02-15 22:41:00,
2013-02-15 15:51:00,31.0,21.0,-100.00,SE,135,9.0,12.0,66,-99.99,,,-99.99,,2013-02-15 22:51:00,
2013-02-15 16:02:00,31.0,21.0,-100.00,SE,135,10.0,11.0,67,-99.99,,,-99.99,,2013-02-15 23:02:00,
2013-02-15 16:11:00,30.0,21.0,-100.00,SE,140,10.0,11.0,68,-99.99,,,-99.99,,2013-02-15 23:11:00,
2013-02-15 16:21:00,29.0,22.0,-100.00,SE,135,11.0,11.0,73,-99.99,,,-99.99,,2013-02-15 23:21:00,
2013-02-15 16:31:00,28.0,21.0,-100.00,SE,140,9.0,11.0,75,-99.99,,,-99.99,,2013-02-15 23:31:00,
2013-02-15 16:41:00,28.0,21.0,-100.00,SE,140,9.0,10.0,76,-99.99,,,-99.99,,2013-02-15 23:41:00,
2013-02-15 16:52:00,27.0,21.0,-100.00,SE,140,9.0,11.0,78,-99.99,,,-99.99,,2013-02-15 23:52:00,
2013-02-15 17:01:00,26.0,21.0,-100.00,SE,140,10.0,11.0,80,-99.99,,,-99.99,,2013-02-16 00:01:00,
2013-02-15 17:11:00,25.0,21.0,-100.00,SE,140,10.0,12.0,82,-99.99,,,-99.99,,2013-02-16 00:11:00,
2013-02-15 17:21:00,25.0,21.0,-100.00,SE,145,10.0,12.0,83,-99.99,,,-99.99,,2013-02-16 00:21:00,
2013-02-15 17:31:00,25.0,21.0,-100.00,SE,145,9.0,12.0,85,-99.99,,,-99.99,,2013-02-16 00:31:00,
2013-02-15 17:41:00,25.0,21.0,-100.00,SE,145,11.0,12.0,86,-99.99,,,-99.99,,2013-02-16 00:41:00,
2013-02-15 17:51:00,25.0,21.0,-100.00,SSE,155,10.0,12.0,86,-99.99,,,-99.99,,2013-02-16 00:51:00,
2013-02-15 18:02:00,25.0,22.0,-100.00,SSE,155,10.0,11.0,86,-99.99,,,-99.99,,2013-02-16 01:02:00,
2013-02-15 18:11:00,24.0,21.0,-100.00,South,175,11.0,12.0,87,-99.99,,,-99.99,,2013-02-16 01:11:00,
2013-02-15 18:21:00,24.0,21.0,-100.00,SSE,155,9.0,11.0,87,-99.99,,,-99.99,,2013-02-16 01:21:00,
2013-02-15 18:31:00,24.0,20.0,-100.00,South,175,6.0,11.0,87,-99.99,,,-99.99,,2013-02-16 01:31:00,
2013-02-15 18:41:00,23.0,20.0,-100.00,SSE,155,4.0,11.0,87,-99.99,,,-99.99,,2013-02-16 01:41:00,
2013-02-15 18:51:00,23.0,20.0,-100.00,South,180,9.0,11.0,87,-99.99,,,-99.99,,2013-02-16 01:51:00,
2013-02-15 19:01:00,22.0,19.0,-100.00,SSW,195,6.0,10.0,87,-99.99,,,-99.99,,2013-02-16 02:01:00,
2013-02-15 19:11:00,26.0,20.0,-100.00,NE,50,4.0,12.0,75,-99.99,,,-99.99,,2013-02-16 02:11:00,
2013-02-15 19:21:00,26.0,18.0,-100.00,SSW,195,8.0,10.0,71,-99.99,,,-99.99,,2013-02-16 02:21:00,
2013-02-15 19:31:00,25.0,17.0,-100.00,SSW,210,7.0,9.0,71,-99.99,,,-99.99,,2013-02-16 02:31:00,
2013-02-15 19:42:00,25.0,17.0,-100.00,SSE,155,8.0,9.0,71,-99.99,,,-99.99,,2013-02-16 02:42:00,
2013-02-15 19:51:00,24.0,17.0,-100.00,South,180,7.0,9.0,74,-99.99,,,-99.99,,2013-02-16 02:51:00,
2013-02-15 20:01:00,25.0,18.0,-100.00,SE,135,6.0,10.0,73,-99.99,,,-99.99,,2013-02-16 03:01:00,
2013-02-15 20:11:00,24.0,17.0,-100.00,SSW,200,8.0,12.0,73,-99.99,,,-99.99,,2013-02-16 03:11:00,
2013-02-15 20:21:00,29.0,18.0,-100.00,SW,220,12.0,17.0,63,-99.99,,,-99.99,,2013-02-16 03:21:00,
2013-02-15 20:31:00,29.0,16.0,-100.00,South,180,4.0,12.0,59,-99.99,,,-99.99,,2013-02-16 03:31:00,
2013-02-15 20:41:00,27.0,16.0,-100.00,NW,315,5.0,10.0,62,-99.99,,,-99.99,,2013-02-16 03:41:00,
2013-02-15 20:52:00,34.0,16.0,-100.00,WNW,285,11.0,19.0,46,-99.99,,,-99.99,,2013-02-16 03:52:00,
2013-02-15 21:01:00,33.0,14.0,-100.00,West,280,9.0,14.0,45,-99.99,,,-99.99,,2013-02-16 04:01:00,
2013-02-15 21:11:00,33.0,14.0,-100.00,WSW,250,7.0,17.0,45,-99.99,,,-99.99,,2013-02-16 04:11:00,
2013-02-15 21:21:00,34.0,14.0,-100.00,West,270,12.0,17.0,44,-99.99,,,-99.99,,2013-02-16 04:21:00,
2013-02-15 21:31:00,34.0,14.0,-100.00,WNW,285,15.0,19.0,43,-99.99,,,-99.99,,2013-02-16 04:31:00,
2013-02-15 21:41:00,35.0,14.0,-100.00,NW,305,19.0,24.0,41,-99.99,,,-99.99,,2013-02-16 04:41:00,
2013-02-15 21:51:00,35.0,14.0,-100.00,WNW,295,17.0,24.0,40,-99.99,,,-99.99,,2013-02-16 04:51:00,
2013-02-15 22:01:00,35.0,13.0,-100.00,NW,315,21.0,24.0,41,-99.99,,,-99.99,,2013-02-16 05:01:00,
2013-02-15 22:11:00,34.0,13.0,-100.00,NW,305,14.0,25.0,41,-99.99,,,-99.99,,2013-02-16 05:11:00,
2013-02-15 22:21:00,33.0,13.0,-100.00,NW,305,12.0,17.0,43,-99.99,,,-99.99,,2013-02-16 05:21:00,
2013-02-15 22:31:00,32.0,13.0,-100.00,WNW,285,10.0,17.0,44,-99.99,,,-99.99,,2013-02-16 05:31:00,
2013-02-15 22:42:00,31.0,13.0,-100.00,WNW,295,12.0,16.0,45,-99.99,,,-99.99,,2013-02-16 05:42:00,
2013-02-15 22:52:00,32.0,13.0,-100.00,WNW,285,12.0,16.0,45,-99.99,,,-99.99,,2013-02-16 05:52:00,
2013-02-15 23:01:00,32.0,13.0,-100.00,WNW,290,12.0,17.0,45,-99.99,,,-99.99,,2013-02-16 06:01:00,
2013-02-15 23:11:00,33.0,14.0,-100.00,WNW,295,19.0,24.0,44,-99.99,,,-99.99,,2013-02-16 06:11:00,
2013-02-15 23:21:00,32.0,14.0,-100.00,WNW,290,17.0,24.0,45,-99.99,,,-99.99,,2013-02-16 06:21:00,
2013-02-15 23:32:00,33.0,14.0,-100.00,WNW,290,19.0,22.0,45,-99.99,,,-99.99,,2013-02-16 06:32:00,
2013-02-15 23:41:00,35.0,15.0,-100.00,NW,310,19.0,24.0,43,-99.99,,,-99.99,,2013-02-16 06:41:00,
2013-02-15 23:51:00,36.0,14.0,-100.00,NW,320,20.0,28.0,41,-99.99,,,-99.99,,2013-02-16 06:51:00,